Terminal Aerodrome Forecast
Issued by NWS

Home | Current Version | Previous Version | Graphics & Text | Print | Product List | Glossary Off
Versions: 1 2 3 4 5 6 7 8 9 10 11 12 13 14

000
FTUS45 KGGW 250500
TAFSDY
TAF
KSDY 250523Z 2506/2606 31007KT P6SM SCT120
     FM250700 31010KT P6SM SKC
     FM251500 26017G30KT P6SM FEW250
     FM260300 28009KT P6SM FEW250
      AMD LTD TO CLD VIS AND WIND=

USA.gov is the U.S. government's official web portal to all federal, state and local government web resources and services.